createdAt,value
2018-11-26T00:01:06.051Z,3.3
2018-11-26T00:02:15.336Z,3.3
2018-11-26T00:03:24.506Z,3.2
2018-11-26T00:04:33.732Z,3.2
2018-11-26T00:05:42.972Z,3.2
2018-11-26T00:06:52.226Z,3.2
2018-11-26T00:08:01.418Z,3.1
2018-11-26T00:09:10.699Z,3.1
2018-11-26T00:10:19.882Z,3
2018-11-26T00:11:29.100Z,3
2018-11-26T00:12:38.330Z,3
2018-11-26T00:13:47.560Z,3
2018-11-26T00:14:56.807Z,3
2018-11-26T00:16:06.085Z,3
2018-11-26T00:17:15.217Z,3
2018-11-26T00:18:24.520Z,3
2018-11-26T00:19:33.703Z,2.9
2018-11-26T00:20:42.896Z,2.9
2018-11-26T00:21:52.131Z,2.9
2018-11-26T00:23:01.396Z,2.9
2018-11-26T00:24:10.536Z,2.9
2018-11-26T00:25:19.770Z,2.9
2018-11-26T00:26:28.995Z,2.8
2018-11-26T00:27:38.203Z,2.8
2018-11-26T00:28:47.407Z,2.8
2018-11-26T00:29:56.632Z,2.8
2018-11-26T00:31:05.844Z,2.8
2018-11-26T00:32:15.058Z,2.7
2018-11-26T00:33:24.278Z,2.7
2018-11-26T00:34:33.504Z,2.7
2018-11-26T00:35:42.730Z,2.7
2018-11-26T00:36:51.924Z,2.7
2018-11-26T00:38:01.216Z,2.6
2018-11-26T00:39:10.331Z,2.6
2018-11-26T00:40:19.568Z,2.6
2018-11-26T00:41:28.780Z,2.6
2018-11-26T00:42:37.988Z,2.6
2018-11-26T00:43:47.190Z,2.6
2018-11-26T00:44:56.410Z,2.6
2018-11-26T00:46:05.617Z,2.5
2018-11-26T00:47:14.816Z,2.5
2018-11-26T00:48:24.122Z,2.5
2018-11-26T00:49:33.255Z,2.5
2018-11-26T00:50:42.453Z,2.5
2018-11-26T00:51:51.654Z,2.5
2018-11-26T00:53:00.864Z,2.5
2018-11-26T00:54:10.091Z,2.4
2018-11-26T00:55:19.312Z,2.4
2018-11-26T00:56:28.491Z,2.4
2018-11-26T00:57:37.702Z,2.4
2018-11-26T00:58:46.926Z,2.3
2018-11-26T00:59:56.254Z,2.3
2018-11-26T01:01:05.321Z,2.3
2018-11-26T01:02:14.516Z,2.2
2018-11-26T01:03:23.719Z,2.3
2018-11-26T01:04:32.938Z,2.3
2018-11-26T01:05:42.238Z,2.3
2018-11-26T01:06:51.387Z,2.3
2018-11-26T01:08:00.537Z,2.3
2018-11-26T01:09:09.748Z,2.2
2018-11-26T01:10:18.996Z,2.3
2018-11-26T01:11:28.142Z,2.2
2018-11-26T01:12:37.372Z,2.2
2018-11-26T01:13:46.543Z,2.2
2018-11-26T01:14:55.802Z,2.2
2018-11-26T01:16:04.958Z,2.2
2018-11-26T01:17:14.142Z,2.2
2018-11-26T01:18:23.347Z,2.2
2018-11-26T01:19:32.545Z,2.2
2018-11-26T01:20:41.766Z,2.1
2018-11-26T01:21:50.979Z,2.2
2018-11-26T01:23:00.160Z,2.2
2018-11-26T01:24:09.347Z,2.2
2018-11-26T01:25:18.559Z,2.1
2018-11-26T01:26:27.747Z,2.2
2018-11-26T01:27:36.948Z,2.1
2018-11-26T01:28:46.153Z,2.1
2018-11-26T01:29:55.357Z,2.1
2018-11-26T01:31:04.555Z,2
2018-11-26T01:32:13.745Z,2.1
2018-11-26T01:33:22.953Z,2.1
2018-11-26T01:34:32.290Z,2.1
2018-11-26T01:35:41.413Z,2.1
2018-11-26T01:36:50.554Z,2.1
2018-11-26T01:37:59.780Z,2.1
2018-11-26T01:39:08.940Z,2.1
2018-11-26T01:40:18.151Z,2.1
2018-11-26T01:41:27.351Z,2.1
2018-11-26T01:42:36.582Z,2.1
2018-11-26T01:43:45.747Z,2.1
2018-11-26T01:44:54.924Z,2.1
2018-11-26T01:46:04.132Z,2.1
2018-11-26T01:47:13.332Z,2.1
2018-11-26T01:48:22.532Z,2
2018-11-26T01:49:31.720Z,2
2018-11-26T01:50:40.972Z,1.9
2018-11-26T01:51:50.122Z,1.9
2018-11-26T01:52:59.318Z,1.8
2018-11-26T01:54:08.502Z,1.9
2018-11-26T01:55:17.691Z,1.9
2018-11-26T01:56:26.954Z,1.8
2018-11-26T01:57:36.124Z,1.8
2018-11-26T01:58:45.303Z,1.8
2018-11-26T01:59:54.490Z,1.8
2018-11-26T02:01:03.679Z,1.8
2018-11-26T02:02:12.866Z,1.7
2018-11-26T02:03:22.064Z,1.8
2018-11-26T02:04:31.312Z,1.8
2018-11-26T02:05:40.437Z,1.8
2018-11-26T02:06:49.633Z,1.8
2018-11-26T02:07:58.846Z,1.8
2018-11-26T02:09:08.066Z,1.7
2018-11-26T02:10:17.379Z,1.7
2018-11-26T02:11:26.534Z,1.7
2018-11-26T02:12:35.598Z,1.6
2018-11-26T02:13:44.811Z,1.7
2018-11-26T02:14:53.981Z,1.7
2018-11-26T02:16:03.150Z,1.7
2018-11-26T02:17:12.351Z,1.7
2018-11-26T02:18:21.528Z,1.6
2018-11-26T02:19:30.762Z,1.5
2018-11-26T02:20:39.911Z,1.6
2018-11-26T02:21:49.090Z,1.6
2018-11-26T02:22:58.277Z,1.7
2018-11-26T02:24:07.479Z,1.7
2018-11-26T02:25:16.661Z,1.8
2018-11-26T02:26:25.857Z,1.7
2018-11-26T02:27:35.031Z,1.6
2018-11-26T02:28:44.213Z,1.5
2018-11-26T02:29:53.407Z,1.5
2018-11-26T02:31:02.642Z,1.5
2018-11-26T02:32:12.096Z,1.5
2018-11-26T02:33:20.963Z,1.5
2018-11-26T02:34:30.148Z,1.5
2018-11-26T02:35:39.917Z,1.5
2018-11-26T02:36:48.596Z,1.5
2018-11-26T02:37:57.732Z,1.6
2018-11-26T02:39:06.903Z,1.6
2018-11-26T02:40:16.104Z,1.6
2018-11-26T02:41:25.299Z,1.5
2018-11-26T02:42:34.451Z,1.6
2018-11-26T02:43:43.648Z,1.6
2018-11-26T02:44:52.835Z,1.7
2018-11-26T02:46:02.016Z,1.7
2018-11-26T02:47:11.214Z,1.7
2018-11-26T02:48:20.440Z,1.7
2018-11-26T02:49:29.606Z,1.8
2018-11-26T02:50:38.783Z,1.8
2018-11-26T02:51:47.967Z,1.8
2018-11-26T02:52:57.165Z,1.7
2018-11-26T02:54:06.396Z,1.8
2018-11-26T02:55:15.608Z,1.8
2018-11-26T02:56:24.753Z,1.8
2018-11-26T02:57:33.942Z,1.8
2018-11-26T02:58:43.111Z,1.8
2018-11-26T02:59:52.309Z,1.8
2018-11-26T03:01:01.488Z,1.8
2018-11-26T03:02:10.731Z,1.8
2018-11-26T03:03:19.887Z,1.8
2018-11-26T03:04:29.117Z,1.8
2018-11-26T03:05:38.290Z,1.7
2018-11-26T03:06:47.477Z,1.7
2018-11-26T03:07:56.647Z,1.7
2018-11-26T03:09:05.845Z,1.7
2018-11-26T03:10:15.048Z,1.7
2018-11-26T03:11:24.229Z,1.7
2018-11-26T03:12:33.418Z,1.7
2018-11-26T03:13:42.620Z,1.7
2018-11-26T03:14:51.807Z,1.7
2018-11-26T03:16:00.985Z,1.8
2018-11-26T03:17:10.192Z,1.8
2018-11-26T03:18:19.381Z,1.7
2018-11-26T03:19:28.564Z,1.8
2018-11-26T03:20:37.784Z,1.8
2018-11-26T03:21:46.937Z,1.8
2018-11-26T03:22:56.148Z,1.7
2018-11-26T03:24:05.330Z,1.6
2018-11-26T03:25:14.530Z,1.7
2018-11-26T03:26:23.731Z,1.7
2018-11-26T03:27:33.000Z,1.7
2018-11-26T03:28:42.113Z,1.7
2018-11-26T03:29:51.305Z,1.7
2018-11-26T03:31:00.561Z,1.8
2018-11-26T03:32:09.698Z,1.8
2018-11-26T03:33:18.881Z,1.8
2018-11-26T03:34:28.084Z,1.8
2018-11-26T03:35:37.274Z,1.8
2018-11-26T03:36:46.485Z,1.8
2018-11-26T03:37:55.735Z,1.7
2018-11-26T03:39:04.852Z,1.7
2018-11-26T03:40:14.024Z,1.7
2018-11-26T03:41:23.231Z,1.8
2018-11-26T03:42:32.421Z,1.7
2018-11-26T03:43:41.617Z,1.7
2018-11-26T03:44:50.806Z,1.6
2018-11-26T03:46:00.091Z,1.7
2018-11-26T03:47:09.181Z,1.7
2018-11-26T03:48:18.367Z,1.7
2018-11-26T03:49:27.656Z,1.7
2018-11-26T03:50:36.750Z,1.7
2018-11-26T03:51:46.126Z,1.7
2018-11-26T03:52:55.173Z,1.7
2018-11-26T03:54:04.334Z,1.7
2018-11-26T03:55:13.526Z,1.7
2018-11-26T03:56:22.731Z,1.7
2018-11-26T03:57:31.896Z,1.7
2018-11-26T03:58:41.090Z,1.7
2018-11-26T03:59:50.284Z,1.7
2018-11-26T04:00:59.875Z,1.7
2018-11-26T04:02:08.773Z,1.8
2018-11-26T04:03:18.523Z,1.7
2018-11-26T04:04:27.053Z,1.7
2018-11-26T04:05:36.239Z,1.7
2018-11-26T04:06:45.433Z,1.7
2018-11-26T04:07:54.635Z,1.7
2018-11-26T04:09:03.959Z,1.6
2018-11-26T04:10:13.035Z,1.7
2018-11-26T04:11:22.211Z,1.7
2018-11-26T04:12:31.401Z,1.7
2018-11-26T04:13:40.605Z,1.7
2018-11-26T04:14:49.832Z,1.7
2018-11-26T04:15:59.001Z,1.7
2018-11-26T04:17:08.153Z,1.7
2018-11-26T04:18:17.335Z,1.7
2018-11-26T04:19:26.532Z,1.8
2018-11-26T04:20:35.717Z,1.8
2018-11-26T04:21:44.904Z,1.7
2018-11-26T04:22:54.090Z,1.8
2018-11-26T04:24:03.284Z,1.8
2018-11-26T04:25:12.540Z,1.8
2018-11-26T04:26:21.706Z,1.9
2018-11-26T04:27:30.855Z,1.9
2018-11-26T04:28:40.039Z,1.9
2018-11-26T04:29:49.234Z,2
2018-11-26T04:30:58.451Z,2
2018-11-26T04:32:07.625Z,2
2018-11-26T04:33:16.816Z,2
2018-11-26T04:34:26.007Z,2
2018-11-26T04:35:35.203Z,2.1
2018-11-26T04:36:44.570Z,2.1
2018-11-26T04:37:53.652Z,2.1
2018-11-26T04:39:02.789Z,2.1
2018-11-26T04:40:11.997Z,2.2
2018-11-26T04:41:21.185Z,2.1
2018-11-26T04:42:30.367Z,2.1
2018-11-26T04:43:39.564Z,2.1
2018-11-26T04:44:48.780Z,2.1
2018-11-26T04:45:57.966Z,2.1
2018-11-26T04:47:07.204Z,2
2018-11-26T04:48:16.370Z,2
2018-11-26T04:49:25.558Z,2
2018-11-26T04:50:34.759Z,2
2018-11-26T04:51:43.955Z,1.9
2018-11-26T04:52:53.140Z,2
2018-11-26T04:54:02.344Z,1.9
2018-11-26T04:55:11.580Z,1.9
2018-11-26T04:56:20.749Z,1.9
2018-11-26T04:57:29.946Z,2
2018-11-26T04:58:39.122Z,1.9
2018-11-26T04:59:48.338Z,1.9
2018-11-26T05:00:57.546Z,1.9
2018-11-26T05:02:06.751Z,1.9
2018-11-26T05:03:15.938Z,2
2018-11-26T05:04:25.133Z,1.9
2018-11-26T05:05:34.309Z,1.9
2018-11-26T05:06:43.523Z,1.9
2018-11-26T05:07:52.719Z,1.9
2018-11-26T05:09:01.908Z,1.9
2018-11-26T05:10:11.099Z,1.9
2018-11-26T05:11:21.150Z,1.9
2018-11-26T05:12:29.501Z,2
2018-11-26T05:13:38.725Z,2
2018-11-26T05:14:47.905Z,2
2018-11-26T05:15:57.087Z,2
2018-11-26T05:17:06.288Z,2
2018-11-26T05:18:15.484Z,1.9
2018-11-26T05:19:24.683Z,1.9
2018-11-26T05:20:33.875Z,1.9
2018-11-26T05:21:43.101Z,1.9
2018-11-26T05:22:52.272Z,1.9
2018-11-26T05:24:01.482Z,2
2018-11-26T05:25:10.724Z,2
2018-11-26T05:26:19.919Z,2
2018-11-26T05:27:29.100Z,2
2018-11-26T05:28:38.387Z,2
2018-11-26T05:29:47.632Z,2
2018-11-26T05:30:57.149Z,2
2018-11-26T05:32:06.164Z,2
2018-11-26T05:33:15.181Z,1.9
2018-11-26T05:34:24.669Z,1.9
2018-11-26T05:35:33.436Z,1.9
2018-11-26T05:36:42.736Z,1.8
2018-11-26T05:37:51.889Z,1.9
2018-11-26T05:39:01.024Z,1.9
2018-11-26T05:40:10.243Z,1.9
2018-11-26T05:41:19.439Z,2
2018-11-26T05:42:28.904Z,2
2018-11-26T05:43:37.836Z,2
2018-11-26T05:44:47.015Z,1.9
2018-11-26T05:45:56.243Z,2
2018-11-26T05:47:05.411Z,1.9
2018-11-26T05:48:14.623Z,1.9
2018-11-26T05:49:23.819Z,1.9
2018-11-26T05:50:33.079Z,1.9
2018-11-26T05:51:42.201Z,1.9
2018-11-26T05:52:51.404Z,1.9
2018-11-26T05:54:00.588Z,2
2018-11-26T05:55:09.820Z,2
2018-11-26T05:56:18.982Z,2
2018-11-26T05:57:28.182Z,2.1
2018-11-26T05:58:37.366Z,2.1
2018-11-26T05:59:46.581Z,2
2018-11-26T06:00:55.829Z,2.1
2018-11-26T06:02:04.959Z,2
2018-11-26T06:03:14.201Z,2
2018-11-26T06:04:23.370Z,2
2018-11-26T06:05:32.573Z,2
2018-11-26T06:06:41.815Z,2.1
2018-11-26T06:07:50.952Z,2.1
2018-11-26T06:09:00.164Z,2.1
2018-11-26T06:10:09.357Z,2.1
2018-11-26T06:11:18.540Z,2
2018-11-26T06:12:27.736Z,2.1
2018-11-26T06:13:36.953Z,2.1
2018-11-26T06:14:46.181Z,2.1
2018-11-26T06:15:55.340Z,2.1
2018-11-26T06:17:04.644Z,2.1
2018-11-26T06:18:13.741Z,2.2
2018-11-26T06:19:22.945Z,2.2
2018-11-26T06:20:32.139Z,2.2
2018-11-26T06:21:41.346Z,2.1
2018-11-26T06:22:50.559Z,2.1
2018-11-26T06:23:59.744Z,2.1
2018-11-26T06:25:08.936Z,2.1
2018-11-26T06:26:18.206Z,2.1
2018-11-26T06:27:27.362Z,2.2
2018-11-26T06:28:36.556Z,2.2
2018-11-26T06:29:45.785Z,2.4
2018-11-26T06:30:54.953Z,2.3
2018-11-26T06:32:04.142Z,2.3
2018-11-26T06:33:13.345Z,2.2
2018-11-26T06:34:22.541Z,2.3
2018-11-26T06:35:31.742Z,2.2
2018-11-26T06:36:40.949Z,2.2
2018-11-26T06:37:50.153Z,2.2
2018-11-26T06:38:59.332Z,2.3
2018-11-26T06:40:08.928Z,2.3
2018-11-26T06:41:17.750Z,2.2
2018-11-26T06:42:26.980Z,2.3
2018-11-26T06:43:36.147Z,2.3
2018-11-26T06:44:45.355Z,2.3
2018-11-26T06:45:54.533Z,2.2
2018-11-26T06:47:03.745Z,2.3
2018-11-26T06:48:13.000Z,2.2
2018-11-26T06:49:22.250Z,2.3
2018-11-26T06:50:31.459Z,2.3
2018-11-26T06:51:40.701Z,2.3
2018-11-26T06:52:49.762Z,2.3
2018-11-26T06:53:58.950Z,2.4
2018-11-26T06:55:08.152Z,2.4
2018-11-26T06:56:17.356Z,2.3
2018-11-26T06:57:26.558Z,2.3
2018-11-26T06:58:35.758Z,2.3
2018-11-26T06:59:44.973Z,2.3
2018-11-26T07:00:54.161Z,2.3
2018-11-26T07:02:03.372Z,2.4
2018-11-26T07:03:12.571Z,2.3
2018-11-26T07:04:21.926Z,2.3
2018-11-26T07:05:31.471Z,2.3
2018-11-26T07:06:40.255Z,2.4
2018-11-26T07:07:49.455Z,2.4
2018-11-26T07:08:58.606Z,2.4
2018-11-26T07:10:07.819Z,2.4
2018-11-26T07:11:17.013Z,2.4
2018-11-26T07:12:26.222Z,2.5
2018-11-26T07:13:35.415Z,2.5
2018-11-26T07:14:44.615Z,2.5
2018-11-26T07:15:53.811Z,2.5
2018-11-26T07:17:03.059Z,2.5
2018-11-26T07:18:12.248Z,2.4
2018-11-26T07:19:21.438Z,2.5
2018-11-26T07:20:30.653Z,2.5
2018-11-26T07:21:39.846Z,2.5
2018-11-26T07:22:49.060Z,2.5
2018-11-26T07:23:58.268Z,2.6
2018-11-26T07:25:07.472Z,2.6
2018-11-26T07:26:16.683Z,2.5
2018-11-26T07:27:25.883Z,2.5
2018-11-26T07:28:35.180Z,2.5
2018-11-26T07:29:44.299Z,2.5
2018-11-26T07:30:53.522Z,2.5
2018-11-26T07:32:02.719Z,2.5
2018-11-26T07:33:11.973Z,2.5
2018-11-26T07:34:21.182Z,2.5
2018-11-26T07:35:30.395Z,2.5
2018-11-26T07:36:39.589Z,2.5
2018-11-26T07:37:48.915Z,2.6
2018-11-26T07:38:57.978Z,2.6
2018-11-26T07:40:07.193Z,2.6
2018-11-26T07:41:16.404Z,2.5
2018-11-26T07:42:25.683Z,2.5
2018-11-26T07:43:34.838Z,2.6
2018-11-26T07:44:44.025Z,2.6
2018-11-26T07:45:53.237Z,2.6
2018-11-26T07:47:02.441Z,2.6
2018-11-26T07:48:11.672Z,2.6
2018-11-26T07:49:20.863Z,2.6
2018-11-26T07:50:30.090Z,2.7
2018-11-26T07:51:39.343Z,2.7
2018-11-26T07:52:48.525Z,2.7
2018-11-26T07:53:57.709Z,2.6
2018-11-26T07:55:06.936Z,2.6
2018-11-26T07:56:16.140Z,2.6
2018-11-26T07:57:25.355Z,2.7
2018-11-26T07:58:34.563Z,2.7
2018-11-26T07:59:43.770Z,2.8
2018-11-26T08:00:53.025Z,2.8
2018-11-26T08:02:02.204Z,2.8
2018-11-26T08:03:11.413Z,2.8
2018-11-26T08:04:20.637Z,2.8
2018-11-26T08:05:29.836Z,2.8
2018-11-26T08:06:39.051Z,2.8
2018-11-26T08:07:48.262Z,2.9
2018-11-26T08:08:57.491Z,2.7
2018-11-26T08:10:06.691Z,2.8
2018-11-26T08:11:15.902Z,2.8
2018-11-26T08:12:25.130Z,2.8
2018-11-26T08:13:34.361Z,2.8
2018-11-26T08:14:43.543Z,2.9
2018-11-26T08:15:52.762Z,2.8
2018-11-26T08:17:02.018Z,2.8
2018-11-26T08:18:11.193Z,2.8
2018-11-26T08:19:20.402Z,2.8
2018-11-26T08:20:29.625Z,2.8
2018-11-26T08:21:38.845Z,2.9
2018-11-26T08:22:48.075Z,2.8
2018-11-26T08:23:57.270Z,2.8
2018-11-26T08:25:06.496Z,2.7
2018-11-26T08:26:15.751Z,2.8
2018-11-26T08:27:24.929Z,2.8
2018-11-26T08:28:34.145Z,2.8
2018-11-26T08:29:43.371Z,2.8
2018-11-26T08:30:52.655Z,2.8
2018-11-26T08:32:01.814Z,2.8
2018-11-26T08:33:11.029Z,2.8
2018-11-26T08:34:20.236Z,2.8
2018-11-26T08:35:29.465Z,2.8
2018-11-26T08:36:38.693Z,2.8
2018-11-26T08:37:47.902Z,2.8
2018-11-26T08:38:57.178Z,2.7
2018-11-26T08:40:06.351Z,2.8
2018-11-26T08:41:15.574Z,2.8
2018-11-26T08:42:24.794Z,2.8
2018-11-26T08:43:34.027Z,2.8
2018-11-26T08:44:43.230Z,2.9
2018-11-26T08:45:52.489Z,2.8
2018-11-26T08:47:01.668Z,2.8
2018-11-26T08:48:10.901Z,2.9
2018-11-26T08:49:20.124Z,2.9
2018-11-26T08:50:29.388Z,2.9
2018-11-26T08:51:38.555Z,2.8
2018-11-26T08:52:47.785Z,2.9
2018-11-26T08:53:56.998Z,2.9
2018-11-26T08:55:06.301Z,2.9
2018-11-26T08:56:15.997Z,2.9
2018-11-26T08:57:24.665Z,2.9
2018-11-26T08:58:33.898Z,2.9
2018-11-26T08:59:43.121Z,2.9
2018-11-26T09:00:52.398Z,3
2018-11-26T09:02:01.626Z,2.9
2018-11-26T09:03:10.861Z,2.9
2018-11-26T09:04:20.008Z,3
2018-11-26T09:05:29.228Z,3
2018-11-26T09:06:38.448Z,3.1
2018-11-26T09:07:47.755Z,3
2018-11-26T09:08:56.915Z,3
2018-11-26T09:10:06.119Z,3.1
2018-11-26T09:11:15.356Z,3
2018-11-26T09:12:24.568Z,3
2018-11-26T09:13:33.837Z,3
2018-11-26T09:14:43.024Z,3
2018-11-26T09:15:52.278Z,3
2018-11-26T09:17:01.491Z,3
2018-11-26T09:18:10.741Z,3.1
2018-11-26T09:19:19.922Z,3
2018-11-26T09:20:29.153Z,3
2018-11-26T09:21:38.369Z,3
2018-11-26T09:22:47.600Z,3
2018-11-26T09:23:56.856Z,3.1
2018-11-26T09:25:06.056Z,3.1
2018-11-26T09:26:15.287Z,3.1
2018-11-26T09:27:24.543Z,3.1
2018-11-26T09:28:33.728Z,3.1
2018-11-26T09:29:42.973Z,3.1
2018-11-26T09:30:52.202Z,3.2
2018-11-26T09:32:01.429Z,3.2
2018-11-26T09:33:10.717Z,3.3
2018-11-26T09:34:19.925Z,3.2
2018-11-26T09:35:29.124Z,3.3
2018-11-26T09:36:38.381Z,3.1
2018-11-26T09:37:47.582Z,3.2
2018-11-26T09:38:56.941Z,3.3
2018-11-26T09:40:06.043Z,3.2
2018-11-26T09:41:15.280Z,3.2
2018-11-26T09:42:24.506Z,3.3
2018-11-26T09:43:33.778Z,3.2
2018-11-26T09:44:42.970Z,3.3
2018-11-26T09:45:52.208Z,3.3
2018-11-26T09:47:01.422Z,3.4
2018-11-26T09:48:10.693Z,3.2
2018-11-26T09:49:19.895Z,3.1
2018-11-26T09:50:29.134Z,3.2
2018-11-26T09:51:42.039Z,3.1
2018-11-26T09:52:47.598Z,3.2
2018-11-26T09:53:56.927Z,3.3
2018-11-26T09:55:06.075Z,3.3
2018-11-26T09:56:15.487Z,3.4
2018-11-26T09:57:24.522Z,3.3
2018-11-26T09:58:33.835Z,3.3
2018-11-26T09:59:43.060Z,3.3
2018-11-26T10:00:52.227Z,3.3
2018-11-26T10:02:01.496Z,3.2
2018-11-26T10:03:10.742Z,3.2
2018-11-26T10:04:19.944Z,3.3
2018-11-26T10:05:29.155Z,3.4
2018-11-26T10:06:38.403Z,3.5
2018-11-26T10:07:47.633Z,3.6
2018-11-26T10:08:56.869Z,3.5
2018-11-26T10:10:06.105Z,3.4
2018-11-26T10:11:15.340Z,3.4
2018-11-26T10:12:24.566Z,3.5
2018-11-26T10:13:33.834Z,3.4
2018-11-26T10:14:43.037Z,3.5
2018-11-26T10:15:52.271Z,3.4
2018-11-26T10:17:01.502Z,3.6
2018-11-26T10:18:10.799Z,3.6
2018-11-26T10:19:20.022Z,3.6
2018-11-26T10:20:29.234Z,3.6
2018-11-26T10:21:38.492Z,3.6
2018-11-26T10:22:47.736Z,3.5
2018-11-26T10:23:57.131Z,3.4
2018-11-26T10:25:06.211Z,3.6
2018-11-26T10:26:15.459Z,3.6
2018-11-26T10:27:24.709Z,3.7
2018-11-26T10:28:33.954Z,3.7
2018-11-26T10:29:43.226Z,3.8
2018-11-26T10:30:52.441Z,3.8
2018-11-26T10:32:01.759Z,3.7
2018-11-26T10:33:14.765Z,3.7
2018-11-26T10:34:20.180Z,3.6
2018-11-26T10:35:29.432Z,3.5
2018-11-26T10:36:38.685Z,3.6
2018-11-26T10:37:47.911Z,3.6
2018-11-26T10:38:57.172Z,3.6
2018-11-26T10:40:06.430Z,3.7
2018-11-26T10:41:15.692Z,3.7
2018-11-26T10:42:24.927Z,3.7
2018-11-26T10:43:34.146Z,3.8
2018-11-26T10:44:43.396Z,3.7
2018-11-26T10:45:52.716Z,3.6
2018-11-26T10:47:01.906Z,3.6
2018-11-26T10:48:11.149Z,3.6
2018-11-26T10:49:20.417Z,3.6
2018-11-26T10:50:29.635Z,3.6
2018-11-26T10:51:38.915Z,3.6
2018-11-26T10:52:48.116Z,3.6
2018-11-26T10:53:57.385Z,3.7
2018-11-26T10:55:06.607Z,3.7
2018-11-26T10:56:15.857Z,3.8
2018-11-26T10:57:25.116Z,3.8
2018-11-26T10:58:34.348Z,3.9
2018-11-26T10:59:43.612Z,3.9
2018-11-26T11:00:52.859Z,3.9
2018-11-26T11:02:02.088Z,4
2018-11-26T11:03:11.339Z,3.9
2018-11-26T11:04:20.594Z,4
2018-11-26T11:05:29.831Z,4.1
2018-11-26T11:06:39.072Z,3.9
2018-11-26T11:07:48.307Z,3.9
2018-11-26T11:08:57.557Z,4
2018-11-26T11:10:06.810Z,4
2018-11-26T11:11:16.456Z,4
2018-11-26T11:12:25.297Z,4.1
2018-11-26T11:13:34.535Z,4.1
2018-11-26T11:14:43.789Z,4
2018-11-26T11:15:53.058Z,4
2018-11-26T11:17:02.288Z,4
2018-11-26T11:18:11.536Z,4
2018-11-26T11:19:20.799Z,4
2018-11-26T11:20:30.026Z,4
2018-11-26T11:21:39.654Z,4.1
2018-11-26T11:22:48.533Z,4.1
2018-11-26T11:23:57.799Z,4.1
2018-11-26T11:25:07.019Z,4.1
2018-11-26T11:26:16.290Z,4
2018-11-26T11:27:25.529Z,4.2
2018-11-26T11:28:34.778Z,4.2
2018-11-26T11:29:44.028Z,4.2
2018-11-26T11:30:53.330Z,4.1
2018-11-26T11:32:02.533Z,4
2018-11-26T11:34:21.025Z,4
2018-11-26T11:35:30.267Z,4
2018-11-26T11:36:39.665Z,4.1
2018-11-26T11:37:48.765Z,4.1
2018-11-26T11:38:58.013Z,4
2018-11-26T11:40:07.271Z,4
2018-11-26T11:41:16.522Z,4
2018-11-26T11:42:25.809Z,4
2018-11-26T11:43:35.012Z,4.1
2018-11-26T11:44:44.259Z,4
2018-11-26T11:45:53.555Z,4
2018-11-26T11:47:02.788Z,4
2018-11-26T11:48:12.007Z,4.1
2018-11-26T11:49:21.254Z,4.1
2018-11-26T11:50:30.529Z,4.1
2018-11-26T11:51:39.760Z,4.1
2018-11-26T11:52:49.005Z,4.2
2018-11-26T11:53:58.274Z,4.1
2018-11-26T11:55:07.508Z,4.2
2018-11-26T11:56:16.748Z,4.1
2018-11-26T11:57:25.992Z,4.2
2018-11-26T11:58:35.242Z,4.2
2018-11-26T11:59:44.522Z,4.2
2018-11-26T12:02:02.995Z,4.1
2018-11-26T12:03:12.246Z,4.3
2018-11-26T12:04:21.493Z,4.3
2018-11-26T12:05:30.749Z,4.3
2018-11-26T12:06:40.043Z,4.2
2018-11-26T12:07:49.260Z,4.3
2018-11-26T12:08:58.503Z,4.2
2018-11-26T12:10:07.748Z,4.1
2018-11-26T12:11:17.015Z,4
2018-11-26T12:12:26.261Z,4.2
2018-11-26T12:13:35.507Z,4.2
2018-11-26T12:14:44.760Z,4.1
2018-11-26T12:15:54.019Z,4.2
2018-11-26T12:17:03.307Z,4.2
2018-11-26T12:18:12.532Z,4.3
2018-11-26T12:19:21.755Z,4.3
2018-11-26T12:20:31.034Z,4.2
2018-11-26T12:21:40.280Z,4.2
2018-11-26T12:22:49.517Z,4.2
2018-11-26T12:23:58.782Z,4.2
2018-11-26T12:25:08.027Z,4.2
2018-11-26T12:26:17.308Z,4.2
2018-11-26T12:27:26.548Z,4.2
2018-11-26T12:28:35.787Z,4.2
2018-11-26T12:29:45.040Z,4.2
2018-11-26T12:30:54.324Z,4.2
2018-11-26T12:32:03.535Z,4.2
2018-11-26T12:33:12.801Z,4.2
2018-11-26T12:34:22.045Z,4.2
2018-11-26T12:35:31.328Z,4.2
2018-11-26T12:36:40.598Z,4.3
2018-11-26T12:37:49.816Z,4.2
2018-11-26T12:38:59.134Z,4.2
2018-11-26T12:40:08.318Z,4.2
2018-11-26T12:41:17.597Z,4.3
2018-11-26T12:42:26.860Z,4.3
2018-11-26T12:43:36.086Z,4.3
2018-11-26T12:44:45.349Z,4.3
2018-11-26T12:45:54.608Z,4.3
2018-11-26T12:47:03.848Z,4.4
2018-11-26T12:48:13.113Z,4.3
2018-11-26T12:49:22.368Z,4.3
2018-11-26T12:50:31.621Z,4.3
2018-11-26T12:51:40.877Z,4.3
2018-11-26T12:52:50.113Z,4.4
2018-11-26T12:53:59.408Z,4.4
2018-11-26T12:55:08.649Z,4.4
2018-11-26T12:56:17.898Z,4.4
2018-11-26T12:57:27.236Z,4.4
2018-11-26T12:58:36.416Z,4.4
2018-11-26T12:59:45.676Z,4.5
2018-11-26T13:00:54.917Z,4.4
2018-11-26T13:02:04.184Z,4.3
2018-11-26T13:03:13.417Z,4.4
2018-11-26T13:04:22.731Z,4.4
2018-11-26T13:05:31.978Z,4.3
2018-11-26T13:06:41.259Z,4.3
2018-11-26T13:07:50.441Z,4.3
2018-11-26T13:08:59.761Z,4.3
2018-11-26T13:10:08.952Z,4.3
2018-11-26T13:11:18.222Z,4.3
2018-11-26T13:12:27.486Z,4.3
2018-11-26T13:13:36.743Z,4.2
2018-11-26T13:14:46.264Z,4.2
2018-11-26T13:15:55.321Z,4.3
2018-11-26T13:17:04.489Z,4.3
2018-11-26T13:18:13.752Z,4.4
2018-11-26T13:19:23.020Z,4.3
2018-11-26T13:20:32.550Z,4.2
2018-11-26T13:21:41.669Z,4.1
2018-11-26T13:22:50.761Z,4.2
2018-11-26T13:24:00.025Z,4.2
2018-11-26T13:25:09.274Z,4.2
2018-11-26T13:26:18.555Z,4.3
2018-11-26T13:27:27.780Z,4.3
2018-11-26T13:28:37.012Z,4.2
2018-11-26T13:29:46.268Z,4.2
2018-11-26T13:30:55.522Z,4.2
2018-11-26T13:32:04.770Z,4.2
2018-11-26T13:33:14.017Z,4.3
2018-11-26T13:34:23.273Z,4.3
2018-11-26T13:35:32.512Z,4.2
2018-11-26T13:36:41.867Z,4.2
2018-11-26T13:37:51.016Z,4.2
2018-11-26T13:39:00.274Z,4.2
2018-11-26T13:40:09.594Z,4.2
2018-11-26T13:41:18.777Z,4.2
2018-11-26T13:42:28.015Z,4.1
2018-11-26T13:43:37.273Z,4.2
2018-11-26T13:44:46.502Z,4.1
2018-11-26T13:45:55.843Z,4.1
2018-11-26T13:47:04.999Z,4.1
2018-11-26T13:48:14.262Z,4.1
2018-11-26T13:49:23.492Z,4.1
2018-11-26T13:50:32.756Z,4.1
2018-11-26T13:51:42.453Z,4.1
2018-11-26T13:52:51.245Z,4.1
2018-11-26T13:54:00.494Z,4.1
2018-11-26T13:55:09.769Z,4.1
2018-11-26T13:56:18.989Z,4
2018-11-26T13:57:28.238Z,4.1
2018-11-26T13:58:37.473Z,4.1
2018-11-26T13:59:46.717Z,4.1
2018-11-26T14:00:55.960Z,4.2
2018-11-26T14:02:05.229Z,4.1
2018-11-26T14:03:14.456Z,4.1
2018-11-26T14:04:23.700Z,4
2018-11-26T14:05:32.942Z,4.1
2018-11-26T14:06:42.239Z,4
2018-11-26T14:07:51.451Z,4.1
2018-11-26T14:09:00.693Z,4
2018-11-26T14:10:09.936Z,4
2018-11-26T14:11:19.206Z,4
2018-11-26T14:12:28.417Z,4
2018-11-26T14:13:37.683Z,4
2018-11-26T14:14:51.559Z,4
2018-11-26T14:15:56.203Z,4.1
2018-11-26T14:17:05.414Z,4.1
2018-11-26T14:18:14.663Z,4.1
2018-11-26T14:19:23.894Z,4
2018-11-26T14:20:33.129Z,4
2018-11-26T14:21:42.382Z,3.9
2018-11-26T14:22:51.642Z,4
2018-11-26T14:24:00.878Z,4
2018-11-26T14:25:10.158Z,4
2018-11-26T14:26:19.441Z,4
2018-11-26T14:27:28.600Z,3.9
2018-11-26T14:28:37.908Z,3.9
2018-11-26T14:29:47.072Z,3.9
2018-11-26T14:30:56.332Z,4
2018-11-26T14:32:05.579Z,3.9
2018-11-26T14:33:14.820Z,3.9
2018-11-26T14:34:24.095Z,4
2018-11-26T14:35:33.353Z,4
2018-11-26T14:36:42.570Z,4
2018-11-26T14:37:51.789Z,4
2018-11-26T14:39:01.044Z,3.9
2018-11-26T14:40:10.269Z,3.9
2018-11-26T14:41:19.529Z,3.9
2018-11-26T14:42:28.783Z,3.8
2018-11-26T14:43:38.025Z,3.9
2018-11-26T14:44:47.260Z,3.9
2018-11-26T14:45:56.505Z,3.9
2018-11-26T14:47:05.757Z,3.9
2018-11-26T14:48:15.002Z,3.9
2018-11-26T14:49:24.234Z,3.9
2018-11-26T14:50:33.456Z,3.9
2018-11-26T14:51:42.696Z,3.9
2018-11-26T14:52:51.986Z,3.9
2018-11-26T14:54:01.178Z,3.9
2018-11-26T14:55:10.424Z,3.9
2018-11-26T14:56:19.664Z,3.9
2018-11-26T14:57:28.928Z,3.9
2018-11-26T14:58:38.151Z,4
2018-11-26T14:59:47.399Z,4
2018-11-26T15:00:56.631Z,3.9
2018-11-26T15:02:05.870Z,3.9
2018-11-26T15:03:15.110Z,3.9
2018-11-26T15:04:24.380Z,3.9
2018-11-26T15:05:33.597Z,3.9
2018-11-26T15:06:42.840Z,3.9
2018-11-26T15:07:52.124Z,4
2018-11-26T15:09:01.313Z,4
2018-11-26T15:10:10.559Z,3.9
2018-11-26T15:11:19.855Z,3.9
2018-11-26T15:12:29.037Z,3.9
2018-11-26T15:13:38.281Z,3.9
2018-11-26T15:14:47.616Z,3.9
2018-11-26T15:15:56.801Z,3.9
2018-11-26T15:17:05.999Z,3.9
2018-11-26T15:18:15.265Z,3.9
2018-11-26T15:19:24.504Z,3.9
2018-11-26T15:20:33.723Z,3.9
2018-11-26T15:21:42.984Z,3.8
2018-11-26T15:22:52.195Z,3.8
2018-11-26T15:24:01.461Z,3.8
2018-11-26T15:25:10.797Z,3.8
2018-11-26T15:26:19.940Z,3.8
2018-11-26T15:27:29.162Z,3.8
2018-11-26T15:28:38.424Z,3.8
2018-11-26T15:29:47.655Z,3.9
2018-11-26T15:30:56.929Z,3.9
2018-11-26T15:32:06.125Z,3.8
2018-11-26T15:33:15.366Z,3.7
2018-11-26T15:34:24.629Z,3.7
2018-11-26T15:35:33.858Z,3.7
2018-11-26T15:36:43.134Z,3.7
2018-11-26T15:37:52.452Z,3.8
2018-11-26T15:39:01.573Z,3.7
2018-11-26T15:40:10.837Z,3.7
2018-11-26T15:41:20.051Z,3.7
2018-11-26T15:42:29.309Z,3.8
2018-11-26T15:43:38.509Z,3.7
2018-11-26T15:44:47.775Z,3.7
2018-11-26T15:45:56.998Z,3.7
2018-11-26T15:47:06.255Z,3.7
2018-11-26T15:48:15.477Z,3.7
2018-11-26T15:49:24.709Z,3.7
2018-11-26T15:50:33.941Z,3.7
2018-11-26T15:51:43.175Z,3.7
2018-11-26T15:52:52.446Z,3.7
2018-11-26T15:54:06.141Z,3.7
2018-11-26T15:55:10.879Z,3.7
2018-11-26T15:56:20.126Z,3.7
2018-11-26T15:57:29.352Z,3.6
2018-11-26T15:58:38.602Z,3.6
2018-11-26T15:59:47.828Z,3.6
2018-11-26T16:00:57.056Z,3.7
2018-11-26T16:02:06.420Z,3.6
2018-11-26T16:03:15.536Z,3.7
2018-11-26T16:04:24.780Z,3.6